EW7526 Weather Reports


Display with metric or nautical units.
time (UTC)temp
F
wind
direction
speed
MPH
gust
MPH
rain 1hr
in
rain 24hr
in
rain mn
in
humidity
%
barometer
mb
20170627070609 91 23 2.0 3.0 0.00 0.00 0.00 15 1010.1
20170627070110 90 22 3.0 3.0 0.00 0.00 0.00 15 1010.1
20170627065610 90 3 3.0 3.0 0.00 0.00 0.00 15 1010.1
20170627065109 90 30 0.0 0.0 0.00 0.00 0.00 16 1010.2
20170627064609 90 42 1.0 2.0 0.00 0.00 0.00 16 1010.2
20170627064110 90 11 0.0 0.0 0.00 0.00 0.00 16 1010.2
20170627063609 90 32 0.0 0.0 0.00 0.00 0.00 16 1010.2
20170627063109 90 21 0.0 0.0 0.00 0.00 0.00 16 1010.2
20170627062609 90 23 2.0 3.0 0.00 0.00 0.00 16 1010.3
20170627062108 90 43 0.0 0.0 0.00 0.00 0.00 15 1010.3
20170627061609 91 72 0.0 0.0 0.00 0.00 0.00 15 1010.1
20170627061109 92 142 0.0 0.0 0.00 0.00 0.00 14 1010.1
20170627060608 92 114 0.0 0.0 0.00 0.00 0.00 14 1010.0
20170627060109 92 112 0.0 0.0 0.00 0.00 0.00 14 1010.0
20170627055609 92 51 0.0 0.0 0.00 0.00 0.00 14 1010.0
20170627055108 93 58 0.0 0.0 0.00 0.00 0.00 14 1009.9
20170627054609 93 18 0.0 0.0 0.00 0.00 0.00 14 1009.9
20170627054108 94 48 0.0 0.0 0.00 0.00 0.00 14 1010.0
20170627053608 94 59 0.0 0.0 0.00 0.00 0.00 14 1010.0
20170627053108 94 40 0.0 0.0 0.00 0.00 0.00 13 1010.0
20170627052609 94 51 2.0 2.0 0.00 0.00 0.00 13 1010.0
20170627052108 95 95 2.0 2.0 0.00 0.00 0.00 13 1010.0
20170627051608 95 41 2.0 2.0 0.00 0.00 0.00 13 1010.2
20170627051108 95 40 2.0 2.0 0.00 0.00 0.00 13 1010.2
20170627050608 96 14 2.0 2.0 0.00 0.00 0.00 12 1010.1
20170627050108 96 10 2.0 2.0 0.00 0.00 0.00 12 1010.1
20170627045608 96 358 2.0 2.0 0.00 0.00 0.00 12 1010.1
20170627045108 97 343 3.0 3.0 0.00 0.00 0.00 12 1010.0
20170627044608 97 48 0.0 0.0 0.00 0.00 0.00 12 1010.0
20170627044107 98 69 0.0 0.0 0.00 0.00 0.00 12 1010.0
20170627043608 98 34 2.0 2.0 0.00 0.00 0.00 12 1010.0
20170627043107 98 316 1.0 2.0 0.00 0.00 0.00 12 1009.9
20170627042608 99 326 1.0 2.0 0.00 0.00 0.00 12 1009.9
20170627042107 99 302 1.0 3.0 0.00 0.00 0.00 12 1009.9
20170627041607 99 238 1.0 5.0 0.00 0.00 0.00 11 1009.8
20170627041107 100 221 0.0 2.0 0.00 0.00 0.00 11 1009.8
20170627040607 100 258 2.0 3.0 0.00 0.00 0.00 11 1009.6
20170627040108 100 247 2.0 3.0 0.00 0.00 0.00 11 1009.6
20170627035606 101 339 2.0 5.0 0.00 0.00 0.00 11 1009.6
20170627035107 101 12 2.0 2.0 0.00 0.00 0.00 11 1009.6
20170627034606 101 208 2.0 2.0 0.00 0.00 0.00 11 1009.6
20170627034106 101 345 2.0 2.0 0.00 0.00 0.00 11 1009.4
20170627033606 101 273 2.0 2.0 0.00 0.00 0.00 11 1009.4
20170627033106 102 275 2.0 3.0 0.00 0.00 0.00 11 1009.4
20170627032607 102 306 1.0 3.0 0.00 0.00 0.00 11 1009.4
20170627032106 102 270 1.0 2.0 0.00 0.00 0.00 11 1009.4
20170627031606 102 279 2.0 3.0 0.00 0.00 0.00 11 1009.1
20170627031106 102 275 1.0 2.0 0.00 0.00 0.00 11 1009.1
20170627030606 102 320 1.0 2.0 0.00 0.00 0.00 11 1009.0
20170627030106 103 286 1.0 2.0 0.00 0.00 0.00 11 1009.0
20170627025607 103 314 2.0 3.0 0.00 0.00 0.00 11 1009.0
20170627025106 103 241 2.0 3.0 0.00 0.00 0.00 10 1009.1
20170627024606 104 325 3.0 5.0 0.00 0.00 0.00 10 1009.1
20170627024106 104 232 2.0 5.0 0.00 0.00 0.00 10 1009.2
20170627023606 104 301 3.0 5.0 0.00 0.00 0.00 10 1009.2
20170627023106 105 261 2.0 6.0 0.00 0.00 0.00 10 1009.1
20170627022606 105 169 2.0 5.0 0.00 0.00 0.00 10 1009.0
20170627022106 105 299 2.0 5.0 0.00 0.00 0.00 10 1009.0
20170627021605 105 292 3.0 6.0 0.00 0.00 0.00 10 1008.9
20170627021106 106 177 3.0 5.0 0.00 0.00 0.00 10 1008.9
20170627020605 106 199 3.0 6.0 0.00 0.00 0.00 10 1008.7
20170627020107 106 99 3.0 5.0 0.00 0.00 0.00 10 1008.7
20170627015606 106 270 3.0 5.0 0.00 0.00 0.00 10 1008.7
20170627015106 107 258 2.0 8.0 0.00 0.00 0.00 10 1008.7
20170627014606 107 166 3.0 7.0 0.00 0.00 0.00 10 1008.7
20170627014106 107 221 5.0 7.0 0.00 0.00 0.00 10 1008.8
20170627013606 107 218 3.0 5.0 0.00 0.00 0.00 10 1008.8
20170627013106 107 171 3.0 8.0 0.00 0.00 0.00 10 1008.7
20170627012606 108 144 3.0 7.0 0.00 0.00 0.00 10 1008.6
20170627012106 108 206 3.0 6.0 0.00 0.00 0.00 10 1008.6
20170627011606 108 216 3.0 7.0 0.00 0.00 0.00 10 1008.6
20170627011106 108 285 3.0 6.0 0.00 0.00 0.00 10 1008.6
20170627010606 108 249 3.0 6.0 0.00 0.00 0.00 10 1008.7
20170627010107 109 224 3.0 7.0 0.00 0.00 0.00 10 1008.7
20170627005605 109 228 5.0 10.0 0.00 0.00 0.00 10 1008.7
20170627005105 109 151 5.0 8.0 0.00 0.00 0.00 10 1008.7
20170627004606 109 279 5.0 8.0 0.00 0.00 0.00 10 1008.7
20170627004105 109 231 2.0 5.0 0.00 0.00 0.00 10 1008.9
20170627003605 109 238 3.0 5.0 0.00 0.00 0.00 10 1008.9
20170627003106 109 191 5.0 8.0 0.00 0.00 0.00 10 1009.0
20170627002605 109 249 5.0 14.0 0.00 0.00 0.00 10 1009.1
20170627002105 109 218 3.0 7.0 0.00 0.00 0.00 10 1009.1
20170627001605 110 186 6.0 9.0 0.00 0.00 0.00 10 1009.1
20170627001106 111 209 7.0 10.0 0.00 0.00 0.00 10 1009.1
20170627000605 110 221 4.0 9.0 0.00 0.00 0.00 10 1009.3
20170627000106 110 168 6.0 10.0 0.00 0.00 0.00 10 1009.3
20170626235606 110 90 5.0 8.0 0.00 0.00 0.00 10 1009.3
20170626235105 111 233 2.0 7.0 0.00 0.00 0.00 10 1009.4
20170626234605 111 222 6.0 10.0 0.00 0.00 0.00 10 1009.4
20170626234106 111 208 7.0 9.0 0.00 0.00 0.00 12 1009.5
20170626233605 111 183 2.0 8.0 0.00 0.00 0.00 12 1009.5
20170626233105 110 171 3.0 6.0 0.00 0.00 0.00 12 1009.6
20170626232607 111 277 5.0 9.0 0.00 0.00 0.00 12 1009.6
20170626232108 110 150 5.0 7.0 0.00 0.00 0.00 12 1009.6
20170626231606 110 271 4.0 7.0 0.00 0.00 0.00 13 1009.8
20170626231107 110 233 4.0 9.0 0.00 0.00 0.00 13 1009.8
20170626230608 111 222 3.0 10.0 0.00 0.00 0.00 13 1009.8
20170626230106 111 241 6.0 9.0 0.00 0.00 0.00 14 1009.9
20170626225608 110 169 8.0 10.0 0.00 0.00 0.00 15 1009.9
20170626225108 112 234 5.0 7.0 0.00 0.00 0.00 15 1010.0
20170626224606 111 188 3.0 12.0 0.00 0.00 0.00 15 1010.0
20170626224105 111 208 7.0 9.0 0.00 0.00 0.00 15 1010.2
20170626223605 110 183 7.0 12.0 0.00 0.00 0.00 16 1010.2
20170626223105 109 176 10.0 14.0 0.00 0.00 0.00 16 1010.3
20170626222605 110 198 7.0 12.0 0.00 0.00 0.00 16 1010.6
20170626222105 111 217 7.0 13.0 0.00 0.00 0.00 16 1010.6
20170626221605 111 194 7.0 8.0 0.00 0.00 0.00 17 1010.8
20170626221105 110 190 3.0 6.0 0.00 0.00 0.00 17 1010.8
20170626220605 109 164 6.0 10.0 0.00 0.00 0.00 18 1011.0
20170626220106 110 186 6.0 9.0 0.00 0.00 0.00 18 1011.1
20170626215605 110 186 4.0 8.0 0.00 0.00 0.00 18 1011.1
20170626215106 108 165 2.0 7.0 0.00 0.00 0.00 19 1011.2
20170626214605 109 180 6.0 8.0 0.00 0.00 0.00 19 1011.2
20170626214105 110 190 4.0 6.0 0.00 0.00 0.00 19 1011.5
20170626213605 108 212 1.0 7.0 0.00 0.00 0.00 20 1011.5
20170626213104 108 197 6.0 7.0 0.00 0.00 0.00 20 1011.6
20170626212605 109 180 7.0 9.0 0.00 0.00 0.00 20 1011.6
20170626212105 109 206 5.0 9.0 0.00 0.00 0.00 20 1011.6
20170626211605 108 136 4.0 7.0 0.00 0.00 0.00 20 1011.7
20170626211105 107 146 4.0 8.0 0.00 0.00 0.00 20 1011.7
20170626210605 107 180 7.0 9.0 0.00 0.00 0.00 20 1011.9
20170626210105 107 191 2.0 6.0 0.00 0.00 0.00 20 1012.0
20170626205605 107 181 5.0 7.0 0.00 0.00 0.00 20 1012.0
20170626205105 108 201 4.0 9.0 0.00 0.00 0.00 20 1012.2
20170626204604 107 163 5.0 7.0 0.00 0.00 0.00 20 1012.2
20170626204104 107 220 3.0 8.0 0.00 0.00 0.00 20 1012.2
20170626203605 107 212 3.0 6.0 0.00 0.00 0.00 21 1012.2
20170626203105 107 190 5.0 8.0 0.00 0.00 0.00 21 1012.4
20170626202605 107 154 6.0 8.0 0.00 0.00 0.00 21 1012.5
20170626202105 107 194 2.0 6.0 0.00 0.00 0.00 21 1012.5
20170626201605 106 198 3.0 6.0 0.00 0.00 0.00 21 1012.6
20170626201105 106 190 6.0 9.0 0.00 0.00 0.00 20 1012.6
20170626200605 107 213 2.0 5.0 0.00 0.00 0.00 20 1013.0
20170626200106 106 185 5.0 7.0 0.00 0.00 0.00 20 1013.0
20170626195605 107 160 3.0 6.0 0.00 0.00 0.00 20 1013.0
20170626195105 106 134 2.0 3.0 0.00 0.00 0.00 21 1013.0
20170626194605 105 127 4.0 8.0 0.00 0.00 0.00 21 1013.0
20170626194105 105 222 7.0 7.0 0.00 0.00 0.00 22 1013.3
20170626193604 105 225 6.0 8.0 0.00 0.00 0.00 22 1013.3
20170626193105 105 223 5.0 8.0 0.00 0.00 0.00 22 1013.4
20170626192605 106 303 3.0 6.0 0.00 0.00 0.00 22 1013.4
20170626192105 106 219 1.0 7.0 0.00 0.00 0.00 22 1013.4
20170626191605 105 169 1.0 5.0 0.00 0.00 0.00 22 1013.7
20170626191105 105 139 2.0 6.0 0.00 0.00 0.00 22 1013.7
20170626190604 105 175 5.0 6.0 0.00 0.00 0.00 23 1014.0
20170626190105 105 188 3.0 6.0 0.00 0.00 0.00 23 1014.0
20170626185604 106 174 3.0 6.0 0.00 0.00 0.00 23 1014.0
20170626185105 104 269 1.0 3.0 0.00 0.00 0.00 24 1014.0
20170626184604 104 52 2.0 3.0 0.00 0.00 0.00 24 1014.0
20170626184104 103 184 5.0 8.0 0.00 0.00 0.00 24 1014.1
20170626183604 104 201 2.0 3.0 0.00 0.00 0.00 24 1014.1
20170626183105 102 177 1.0 5.0 0.00 0.00 0.00 26 1014.2
20170626182605 102 211 3.0 6.0 0.00 0.00 0.00 26 1014.3
20170626182105 102 139 5.0 6.0 0.00 0.00 0.00 26 1014.3
20170626181604 101 192 3.0 5.0 0.00 0.00 0.00 26 1014.4
20170626181104 102 205 2.0 5.0 0.00 0.00 0.00 26 1014.4
20170626180604 101 197 6.0 7.0 0.00 0.00 0.00 26 1014.5
20170626180105 102 206 5.0 6.0 0.00 0.00 0.00 25 1014.5
20170626175604 102 202 4.0 6.0 0.00 0.00 0.00 26 1014.5
20170626175104 102 145 2.0 6.0 0.00 0.00 0.00 26 1014.5
20170626174604 102 94 2.0 5.0 0.00 0.00 0.00 26 1014.5
20170626174104 101 176 3.0 5.0 0.00 0.00 0.00 27 1014.7
20170626173604 101 205 5.0 6.0 0.00 0.00 0.00 27 1014.7
20170626173104 101 193 2.0 6.0 0.00 0.00 0.00 27 1014.7
20170626172605 100 103 3.0 6.0 0.00 0.00 0.00 28 1014.7
20170626172105 100 33 2.0 6.0 0.00 0.00 0.00 27 1014.7
20170626171605 101 202 3.0 6.0 0.00 0.00 0.00 27 1014.7
20170626171105 101 76 3.0 5.0 0.00 0.00 0.00 27 1014.7
20170626170604 101 136 3.0 5.0 0.00 0.00 0.00 27 1014.9
20170626170105 101 137 3.0 6.0 0.00 0.00 0.00 27 1014.9
20170626165604 100 156 1.0 3.0 0.00 0.00 0.00 28 1014.9
20170626165104 98 326 4.0 6.0 0.00 0.00 0.00 29 1015.1
20170626164605 99 9 2.0 5.0 0.00 0.00 0.00 28 1015.1
20170626164105 98 141 3.0 5.0 0.00 0.00 0.00 29 1015.2
20170626163604 99 95 3.0 5.0 0.00 0.00 0.00 29 1015.2
20170626163104 99 154 3.0 5.0 0.00 0.00 0.00 29 1015.2
20170626162605 98 198 1.0 5.0 0.00 0.00 0.00 30 1015.2
20170626162104 99 162 2.0 6.0 0.00 0.00 0.00 30 1015.2
20170626161604 97 230 3.0 3.0 0.00 0.00 0.00 32 1015.4
20170626161104 97 80 2.0 2.0 0.00 0.00 0.00 31 1015.4
20170626160604 97 137 1.0 2.0 0.00 0.00 0.00 31 1015.5
20170626160107 96 142 3.0 5.0 0.00 0.00 0.00 32 1015.5
20170626155606 96 192 4.0 6.0 0.00 0.00 0.00 32 1015.5
20170626155106 96 176 0.0 2.0 0.00 0.00 0.00 33 1015.6
20170626154607 95 191 4.0 6.0 0.00 0.00 0.00 33 1015.6
20170626154106 96 166 3.0 6.0 0.00 0.00 0.00 33 1015.7
20170626153606 96 189 3.0 3.0 0.00 0.00 0.00 33 1015.7
20170626153107 95 195 2.0 2.0 0.00 0.00 0.00 34 1015.6
20170626152606 95 201 2.0 3.0 0.00 0.00 0.00 34 1015.6
20170626152106 94 205 3.0 5.0 0.00 0.00 0.00 34 1015.6
20170626151606 94 209 2.0 3.0 0.00 0.00 0.00 35 1015.6
20170626151106 93 207 3.0 5.0 0.00 0.00 0.00 35 1015.6
20170626150607 93 193 3.0 6.0 0.00 0.00 0.00 35 1015.5
20170626150107 93 188 3.0 5.0 0.00 0.00 0.00 35 1015.5
20170626145607 94 168 3.0 6.0 0.00 0.00 0.00 34 1015.5
20170626145107 94 177 1.0 3.0 0.00 0.00 0.00 35 1015.5
20170626144606 94 173 2.0 5.0 0.00 0.00 0.00 35 1015.5
20170626144107 93 87 0.0 3.0 0.00 0.00 0.00 35 1015.3
20170626143606 92 173 3.0 5.0 0.00 0.00 0.00 36 1015.3
20170626143107 92 203 2.0 5.0 0.00 0.00 0.00 37 1015.3
20170626142606 91 241 2.0 6.0 0.00 0.00 0.00 37 1015.3
20170626142106 91 178 2.0 5.0 0.00 0.00 0.00 37 1015.3
20170626141606 90 66 2.0 5.0 0.00 0.00 0.00 37 1015.1
20170626141106 90 168 4.0 6.0 0.00 0.00 0.00 37 1015.1
20170626140606 90 185 3.0 6.0 0.00 0.00 0.00 37 1015.0
20170626140107 89 330 3.0 6.0 0.00 0.00 0.00 38 1015.0
20170626135606 89 161 1.0 3.0 0.00 0.00 0.00 38 1015.0
20170626135106 89 273 2.0 3.0 0.00 0.00 0.00 38 1015.1
20170626134606 88 232 2.0 5.0 0.00 0.00 0.00 38 1015.1
20170626134106 88 124 2.0 3.0 0.00 0.00 0.00 38 1015.0
20170626133606 88 196 2.0 5.0 0.00 0.00 0.00 38 1015.0
20170626133106 87 104 1.0 2.0 0.00 0.00 0.00 39 1014.9
20170626132606 87 124 2.0 3.0 0.00 0.00 0.00 38 1014.9
20170626132106 86 143 0.0 2.0 0.00 0.00 0.00 39 1014.9
20170626131609 85 141 1.0 2.0 0.00 0.00 0.00 39 1014.8
20170626131106 84 343 0.0 0.0 0.00 0.00 0.00 39 1014.8
20170626130606 83 119 0.0 1.0 0.00 0.00 0.00 39 1014.6
20170626130106 83 160 1.0 2.0 0.00 0.00 0.00 39 1014.6
20170626125606 83 123 1.0 2.0 0.00 0.00 0.00 39 1014.6
20170626125107 83 105 1.0 2.0 0.00 0.00 0.00 39 1014.6
20170626124606 83 159 2.0 3.0 0.00 0.00 0.00 40 1014.6
20170626124106 83 189 2.0 3.0 0.00 0.00 0.00 40 1014.4
20170626123606 83 124 2.0 3.0 0.00 0.00 0.00 40 1014.4
20170626123106 83 58 2.0 3.0 0.00 0.00 0.00 40 1014.4
20170626122606 83 155 1.0 2.0 0.00 0.00 0.00 38 1014.3
20170626122106 83 334 2.0 2.0 0.00 0.00 0.00 37 1014.3
20170626121606 83 88 1.0 2.0 0.00 0.00 0.00 36 1014.0
20170626121106 83 37 1.0 3.0 0.00 0.00 0.00 34 1014.0
20170626120606 84 139 0.0 1.0 0.00 0.00 0.00 33 1013.9
20170626120106 84 132 1.0 2.0 0.00 0.00 0.00 32 1013.9
20170626115606 84 154 2.0 2.0 0.00 0.00 0.00 32 1013.9
20170626115106 84 151 2.0 3.0 0.00 0.00 0.00 32 1013.7
20170626114606 84 143 2.0 2.0 0.00 0.00 0.00 30 1013.7
20170626114105 85 141 0.0 0.0 0.00 0.00 0.00 30 1013.7
20170626113606 85 158 0.0 2.0 0.00 0.00 0.00 30 1013.7
20170626113106 85 171 1.0 2.0 0.00 0.00 0.00 29 1013.6
20170626112608 85 180 1.0 5.0 0.00 0.00 0.00 29 1013.5
20170626112106 85 158 1.0 3.0 0.00 0.00 0.00 28 1013.5
20170626111605 85 134 0.0 0.0 0.00 0.00 0.00 28 1013.3
20170626111106 85 172 0.0 0.0 0.00 0.00 0.00 28 1013.3
20170626110606 85 172 0.0 0.0 0.00 0.00 0.00 28 1013.2
20170626110106 85 155 0.0 0.0 0.00 0.00 0.00 27 1013.2
20170626105605 85 169 0.0 0.0 0.00 0.00 0.00 27 1013.2
20170626105105 86 180 0.0 0.0 0.00 0.00 0.00 27 1013.1
20170626104606 86 328 0.0 0.0 0.00 0.00 0.00 27 1013.1
20170626104105 86 174 0.0 0.0 0.00 0.00 0.00 27 1012.9
20170626103606 86 145 0.0 2.0 0.00 0.00 0.00 27 1012.9
20170626103106 86 163 0.0 2.0 0.00 0.00 0.00 27 1012.9
20170626102606 86 181 0.0 0.0 0.00 0.00 0.00 27 1012.9
20170626102105 86 167 0.0 0.0 0.00 0.00 0.00 27 1012.9
20170626101606 87 138 0.0 0.0 0.00 0.00 0.00 26 1012.9
20170626101106 87 141 0.0 0.0 0.00 0.00 0.00 26 1012.9
20170626100605 87 150 0.0 0.0 0.00 0.00 0.00 26 1012.9
20170626100106 87 258 0.0 1.0 0.00 0.00 0.00 26 1012.9
20170626095606 87 95 0.0 1.0 0.00 0.00 0.00 26 1012.9
20170626095105 88 180 0.0 1.0 0.00 0.00 0.00 26 1012.9
20170626094606 88 173 2.0 2.0 0.00 0.00 0.00 26 1012.9
20170626094105 88 192 2.0 2.0 0.00 0.00 0.00 26 1012.7
20170626093605 88 152 1.0 1.0 0.00 0.00 0.00 26 1012.7
20170626093106 89 69 1.0 3.0 0.00 0.00 0.00 27 1012.6
20170626092606 89 160 2.0 3.0 0.00 0.00 0.00 27 1012.5
20170626092106 89 142 3.0 5.0 0.00 0.00 0.00 27 1012.5
20170626091605 89 166 2.0 3.0 0.00 0.00 0.00 27 1012.4
20170626091105 89 149 3.0 5.0 0.00 0.00 0.00 27 1012.4
20170626090605 89 147 3.0 6.0 0.00 0.00 0.00 26 1012.4
20170626090106 88 141 5.0 6.0 0.00 0.00 0.00 26 1012.4
20170626085605 88 108 2.0 5.0 0.00 0.00 0.00 25 1012.4
20170626085105 87 166 0.0 1.0 0.00 0.00 0.00 25 1012.2
20170626084607 87 158 0.0 0.0 0.00 0.00 0.00 25 1012.2
20170626084106 87 86 0.0 0.0 0.00 0.00 0.00 25 1012.2
20170626083605 88 52 0.0 0.0 0.00 0.00 0.00 24 1012.2
20170626083106 88 90 0.0 0.0 0.00 0.00 0.00 24 1012.2
20170626082605 89 68 0.0 0.0 0.00 0.00 0.00 24 1012.2
20170626082106 89 137 0.0 0.0 0.00 0.00 0.00 24 1012.2
20170626081605 89 91 0.0 0.0 0.00 0.00 0.00 23 1012.2
20170626081106 89 44 0.0 1.0 0.00 0.00 0.00 23 1012.2
20170626080606 90 22 0.0 2.0 0.00 0.00 0.00 23 1012.2
20170626080114 89 101 0.0 3.0 0.00 0.00 0.00 23 1012.1
20170626075614 89 17 2.0 3.0 0.00 0.00 0.00 23 1012.1
20170626075114 89 354 2.0 3.0 0.00 0.00 0.00 23 1012.0
20170626074613 89 18 2.0 3.0 0.00 0.00 0.00 23 1012.0
20170626074113 90 0 2.0 5.0 0.00 0.00 0.00 23 1012.0
20170626073613 90 27 2.0 5.0 0.00 0.00 0.00 23 1012.0
20170626073113 90 324 2.0 3.0 0.00 0.00 0.00 23 1011.9
20170626072613 90 38 2.0 3.0 0.00 0.00 0.00 23 1011.8
20170626072113 90 45 2.0 5.0 0.00 0.00 0.00 23 1011.8
20170626071612 90 338 2.0 2.0 0.00 0.00 0.00 23 1011.9
20170626071113 90 347 3.0 3.0 0.00 0.00 0.00 23 1011.9